Time;durP1;ratioP1;P1;durP2;ratioP2;P2;SDS_P1;SDS_P2;PMS_P1;PMS_P2;Temp;Humidity;BMP_temperature;BMP_pressure;BME280_temperature;BME280_humidity;BME280_pressure;Samples;Min_cycle;Max_cycle;Signal;HPM_P1;HPM_P2
2024/01/27 00:02:21;;;;;;;18.25;3.33;;;14.80;78.70;;;;;;4205011;28;20063;-61
2024/01/27 00:05:03;;;;;;;9.50;2.35;;;14.80;78.80;;;;;;4203431;28;20051;-60
2024/01/27 00:07:44;;;;;;;;;;;14.80;78.90;;;;;;4209724;27;20122;-62
2024/01/27 00:10:25;;;;;;;14.23;3.08;;;14.80;78.90;;;;;;4221311;27;19967;-62
2024/01/27 00:13:06;;;;;;;11.35;1.95;;;14.80;79.60;;;;;;4219174;27;20410;-61
2024/01/27 00:15:49;;;;;;;16.15;2.95;;;14.80;79.50;;;;;;4204634;28;20100;-61
2024/01/27 00:18:30;;;;;;;16.40;3.33;;;14.70;79.40;;;;;;4204337;28;20535;-62
2024/01/27 00:21:11;;;;;;;17.73;3.10;;;14.70;79.50;;;;;;4187349;28;20055;-62
2024/01/27 00:23:52;;;;;;;11.50;2.38;;;14.70;79.20;;;;;;4195588;27;20490;-62
2024/01/27 00:26:33;;;;;;;15.18;2.97;;;14.70;79.90;;;;;;4204380;27;20425;-62
2024/01/27 00:29:14;;;;;;;12.52;3.13;;;14.70;79.00;;;;;;4204543;27;20105;-62
2024/01/27 00:31:57;;;;;;;16.40;3.35;;;14.70;79.00;;;;;;4204156;27;20063;-61
2024/01/27 00:34:37;;;;;;;13.70;3.33;;;14.70;79.20;;;;;;4189918;27;20161;-62
2024/01/27 00:37:19;;;;;;;15.05;2.53;;;14.70;79.30;;;;;;4203175;27;20100;-61
2024/01/27 00:40:00;;;;;;;;;;;14.70;79.20;;;;;;4204939;27;20055;-61
2024/01/27 00:42:42;;;;;;;13.50;2.60;;;14.60;79.30;;;;;;4189049;27;19943;-60
2024/01/27 00:45:23;;;;;;;21.55;2.70;;;14.60;80.00;;;;;;4204432;28;20043;-60
2024/01/27 00:48:05;;;;;;;17.42;5.00;;;14.60;80.00;;;;;;4212015;27;20054;-61
2024/01/27 00:50:46;;;;;;;12.85;2.38;;;14.60;79.90;;;;;;4221005;27;20058;-59
2024/01/27 00:53:27;;;;;;;17.50;2.85;;;14.60;79.90;;;;;;4220352;27;20592;-61
2024/01/27 00:56:08;;;;;;;19.70;2.88;;;14.60;80.00;;;;;;4220438;27;20074;-61
2024/01/27 00:58:49;;;;;;;12.20;2.70;;;14.60;80.00;;;;;;4212316;27;20410;-61
2024/01/27 01:01:30;;;;;;;11.52;3.20;;;14.50;79.90;;;;;;4203617;27;20584;-48
2024/01/27 01:04:13;;;;;;;15.90;3.13;;;14.50;80.00;;;;;;4218065;27;20452;-61
2024/01/27 01:06:53;;;;;;;17.67;3.08;;;14.50;80.10;;;;;;4220493;27;20475;-61
2024/01/27 01:09:34;;;;;;;12.73;2.70;;;14.50;80.20;;;;;;4220234;27;20181;-61
2024/01/27 01:12:16;;;;;;;10.60;2.55;;;14.50;80.40;;;;;;4208950;28;20051;-61
2024/01/27 01:14:57;;;;;;;11.45;2.50;;;14.60;80.90;;;;;;4203402;28;20058;-61
2024/01/27 01:17:38;;;;;;;10.07;1.88;;;14.60;80.90;;;;;;4203674;28;20055;-61
2024/01/27 01:20:20;;;;;;;9.43;2.30;;;14.70;80.90;;;;;;4203769;28;20055;-61
2024/01/27 01:23:01;;;;;;;8.98;2.58;;;14.70;80.70;;;;;;4203619;28;20051;-62
2024/01/27 01:25:42;;;;;;;18.73;3.15;;;14.70;80.40;;;;;;4204014;28;20055;-61
2024/01/27 01:28:23;;;;;;;13.63;3.13;;;14.70;80.30;;;;;;4204168;28;20467;-61
2024/01/27 01:31:07;;;;;;;15.43;3.63;;;14.70;80.50;;;;;;4203826;28;20487;-62
2024/01/27 01:33:48;;;;;;;15.20;2.58;;;14.70;80.60;;;;;;4203617;28;20062;-63
2024/01/27 01:36:31;;;;;;;11.85;2.90;;;14.80;80.60;;;;;;4202171;28;20394;-62
2024/01/27 01:39:13;;;;;;;9.65;2.20;;;14.90;80.20;;;;;;4204180;28;20055;-62
2024/01/27 01:41:54;;;;;;;9.93;2.55;;;15.00;80.00;;;;;;4203755;28;20792;-61
2024/01/27 01:44:35;;;;;;;12.45;2.90;;;15.10;79.80;;;;;;4203893;28;20482;-62
2024/01/27 01:47:16;;;;;;;13.35;2.40;;;15.10;79.30;;;;;;4186682;28;20064;-62
2024/01/27 01:49:59;;;;;;;9.40;2.70;;;15.10;79.20;;;;;;4186965;28;20055;-62
2024/01/27 01:52:41;;;;;;;16.50;1.90;;;15.10;79.10;;;;;;4202341;28;20482;-61
2024/01/27 01:55:22;;;;;;;14.07;2.92;;;15.10;79.00;;;;;;4203549;28;20058;-62
2024/01/27 01:58:04;;;;;;;12.93;2.22;;;15.20;79.20;;;;;;4187102;28;20055;-62
2024/01/27 02:00:45;;;;;;;18.00;3.67;;;15.30;79.20;;;;;;4206703;28;20077;-62
2024/01/27 02:03:27;;;;;;;17.17;3.63;;;15.30;78.90;;;;;;4208871;27;20500;-64
2024/01/27 02:06:09;;;;;;;13.02;2.85;;;15.40;78.40;;;;;;4205652;28;20097;-61
2024/01/27 02:08:51;;;;;;;14.70;2.47;;;15.40;78.10;;;;;;4222318;27;20062;-61
2024/01/27 02:11:32;;;;;;;14.40;2.40;;;15.50;78.90;;;;;;4224171;27;20050;-62
2024/01/27 02:14:13;;;;;;;10.80;2.13;;;15.40;77.70;;;;;;4206615;28;20185;-61
2024/01/27 02:16:54;;;;;;;;;;;15.40;77.60;;;;;;4218112;27;20107;-61
2024/01/27 02:19:34;;;;;;;8.93;2.35;;;15.40;78.10;;;;;;4190327;28;19927;-62
2024/01/27 02:22:16;;;;;;;10.80;2.45;;;15.50;78.30;;;;;;4189557;28;20601;-61
2024/01/27 02:24:59;;;;;;;12.25;2.45;;;15.60;77.80;;;;;;4206239;28;20382;-61
2024/01/27 02:27:39;;;;;;;13.55;2.60;;;15.70;77.30;;;;;;4206568;28;20050;-61
2024/01/27 02:30:21;;;;;;;11.05;2.40;;;15.70;77.00;;;;;;4212214;27;20054;-61
2024/01/27 02:33:02;;;;;;;12.48;2.35;;;15.70;76.90;;;;;;4217159;27;20059;-61
2024/01/27 02:35:43;;;;;;;16.98;3.00;;;15.70;76.90;;;;;;4213266;27;20120;-52
2024/01/27 02:38:24;;;;;;;;;;;15.70;76.80;;;;;;4217827;27;20067;-49
2024/01/27 02:41:06;;;;;;;12.25;3.28;;;15.70;76.80;;;;;;4239879;27;19926;-48
2024/01/27 02:43:47;;;;;;;15.98;2.60;;;15.70;76.80;;;;;;4224274;27;20117;-50
2024/01/27 02:46:29;;;;;;;10.65;2.67;;;15.60;77.50;;;;;;4211217;27;20096;-48
2024/01/27 02:49:09;;;;;;;14.13;2.65;;;15.60;76.90;;;;;;4189266;28;20059;-51
2024/01/27 02:51:50;;;;;;;10.95;2.38;;;15.60;77.10;;;;;;4189200;28;20418;-48
2024/01/27 02:54:31;;;;;;;9.35;2.03;;;15.60;77.10;;;;;;4187756;28;20098;-48
2024/01/27 02:57:15;;;;;;;9.88;3.03;;;15.60;76.90;;;;;;4188837;28;20059;-50
2024/01/27 02:59:56;;;;;;;9.02;2.03;;;15.70;76.80;;;;;;4204393;28;20136;-52
2024/01/27 03:02:37;;;;;;;9.83;2.57;;;15.70;76.70;;;;;;4207219;27;20102;-51
2024/01/27 03:05:18;;;;;;;8.98;2.15;;;15.80;76.60;;;;;;4190272;27;20290;-51
2024/01/27 03:07:59;;;;;;;19.17;2.90;;;15.80;76.30;;;;;;4199032;28;20055;-48
2024/01/27 03:10:40;;;;;;;6.63;1.92;;;15.80;76.20;;;;;;4205007;28;20051;-52
2024/01/27 03:13:22;;;;;;;11.48;2.67;;;15.90;76.40;;;;;;4205777;28;20051;-62
2024/01/27 03:16:04;;;;;;;11.35;2.42;;;15.90;75.90;;;;;;4210677;27;20605;-62
2024/01/27 03:18:45;;;;;;;11.18;2.20;;;16.00;75.50;;;;;;4205272;27;20047;-62
2024/01/27 03:21:26;;;;;;;11.60;2.88;;;16.00;75.40;;;;;;4205890;28;20043;-63
2024/01/27 03:24:07;;;;;;;10.18;2.28;;;16.00;75.40;;;;;;4190119;28;20051;-48
2024/01/27 03:26:48;;;;;;;8.38;2.20;;;16.00;75.20;;;;;;4199919;27;20070;-49
2024/01/27 03:29:31;;;;;;;12.00;2.35;;;16.00;75.20;;;;;;4200322;27;20059;-48
2024/01/27 03:32:12;;;;;;;14.20;2.72;;;16.10;75.00;;;;;;4188802;28;20094;-49
2024/01/27 03:34:52;;;;;;;11.93;2.75;;;16.10;74.90;;;;;;4188993;28;20047;-49
2024/01/27 03:37:34;;;;;;;9.15;2.30;;;16.10;75.00;;;;;;4188966;28;20056;-52
2024/01/27 03:40:15;;;;;;;12.38;2.95;;;16.10;75.10;;;;;;4188352;28;20059;-51
2024/01/27 03:42:56;;;;;;;10.82;2.83;;;16.10;74.90;;;;;;4188459;28;20055;-49
2024/01/27 03:45:38;;;;;;;8.65;2.45;;;16.20;74.60;;;;;;4188828;27;20097;-49
2024/01/27 03:48:19;;;;;;;7.18;2.20;;;16.20;74.50;;;;;;4188463;28;20071;-48
2024/01/27 03:51:00;;;;;;;14.75;2.60;;;16.20;74.20;;;;;;4188591;28;20251;-51
2024/01/27 03:53:41;;;;;;;10.15;1.95;;;16.20;74.20;;;;;;4205082;28;20096;-49
2024/01/27 03:56:22;;;;;;;8.75;2.42;;;16.20;74.30;;;;;;4195696;28;20589;-49
2024/01/27 03:59:05;;;;;;;9.98;2.53;;;16.20;74.50;;;;;;4204547;28;20051;-49
2024/01/27 04:01:48;;;;;;;9.60;1.90;;;16.20;74.30;;;;;;4217183;27;20048;-50
2024/01/27 04:04:29;;;;;;;6.63;1.92;;;16.20;73.90;;;;;;4221520;27;20402;-48
2024/01/27 04:07:10;;;;;;;10.23;1.90;;;16.20;73.80;;;;;;4217267;27;20062;-50
2024/01/27 04:09:52;;;;;;;10.13;2.05;;;16.20;73.70;;;;;;4220325;27;20051;-50
2024/01/27 04:12:33;;;;;;;14.40;2.30;;;16.10;73.70;;;;;;4221083;27;20137;-63
2024/01/27 04:15:14;;;;;;;10.88;1.90;;;16.10;74.20;;;;;;4219881;27;20173;-62
2024/01/27 04:17:57;;;;;;;;;;;16.10;74.40;;;;;;4220484;27;20505;-62
2024/01/27 04:20:38;;;;;;;12.88;2.28;;;16.20;74.40;;;;;;4187599;28;19943;-62
2024/01/27 04:23:19;;;;;;;10.48;2.10;;;16.20;74.30;;;;;;4204658;28;20059;-62
2024/01/27 04:26:00;;;;;;;11.20;2.05;;;16.20;74.00;;;;;;4203902;28;20403;-63
2024/01/27 04:28:41;;;;;;;13.35;2.40;;;16.20;74.00;;;;;;4204412;28;20051;-51
2024/01/27 04:31:22;;;;;;;12.73;2.78;;;16.20;74.00;;;;;;4204922;28;20152;-49
2024/01/27 04:34:05;;;;;;;8.15;1.88;;;16.10;74.10;;;;;;4220508;27;20503;-52
2024/01/27 04:36:46;;;;;;;9.85;2.13;;;16.00;74.40;;;;;;4204683;28;20066;-60
2024/01/27 04:39:27;;;;;;;12.77;2.13;;;16.10;74.50;;;;;;4204316;28;20055;-62
2024/01/27 04:42:08;;;;;;;9.27;2.10;;;16.10;74.20;;;;;;4204374;28;20059;-62
2024/01/27 04:44:49;;;;;;;5.45;1.67;;;16.20;74.10;;;;;;4204364;28;20083;-62
2024/01/27 04:47:30;;;;;;;14.10;2.55;;;16.20;75.00;;;;;;4204104;28;20506;-62
2024/01/27 04:50:13;;;;;;;11.93;2.75;;;16.30;74.00;;;;;;4204463;28;20055;-62
2024/01/27 04:52:54;;;;;;;11.90;2.25;;;16.30;73.70;;;;;;4203758;28;20059;-62
2024/01/27 04:55:35;;;;;;;11.23;2.63;;;16.30;73.40;;;;;;4204542;28;20399;-62
2024/01/27 04:58:16;;;;;;;9.73;2.47;;;16.30;73.40;;;;;;4204117;28;20499;-62
2024/01/27 05:00:57;;;;;;;9.52;2.13;;;16.30;73.80;;;;;;4203757;28;20413;-52
2024/01/27 05:03:38;;;;;;;10.07;2.00;;;16.30;73.80;;;;;;4207956;28;20086;-51
2024/01/27 05:06:20;;;;;;;6.75;1.98;;;16.40;73.40;;;;;;4204183;28;20055;-48
2024/01/27 05:09:01;;;;;;;10.55;2.17;;;16.40;73.20;;;;;;4220428;27;20054;-48
2024/01/27 05:11:42;;;;;;;11.80;2.58;;;16.40;73.10;;;;;;4204939;28;20055;-49
2024/01/27 05:14:23;;;;;;;14.68;2.63;;;16.40;73.10;;;;;;4204233;28;20055;-51
2024/01/27 05:17:05;;;;;;;10.15;2.30;;;16.40;73.00;;;;;;4206105;27;20415;-62
2024/01/27 05:19:46;;;;;;;8.20;2.20;;;16.40;73.00;;;;;;4220715;27;20798;-62
2024/01/27 05:22:28;;;;;;;10.23;2.28;;;16.30;73.10;;;;;;4206871;27;20047;-49
2024/01/27 05:25:09;;;;;;;9.88;2.30;;;16.30;73.20;;;;;;4218774;27;20070;-50
2024/01/27 05:27:50;;;;;;;10.25;2.30;;;16.20;73.20;;;;;;4220696;27;20054;-50
2024/01/27 05:30:32;;;;;;;13.48;2.47;;;16.10;73.60;;;;;;4220973;27;20047;-48
2024/01/27 05:33:13;;;;;;;6.65;1.75;;;16.20;73.90;;;;;;4203599;28;20477;-52
2024/01/27 05:35:53;;;;;;;9.35;1.95;;;16.20;73.80;;;;;;4206445;28;20108;-50
2024/01/27 05:38:36;;;;;;;12.50;2.95;;;16.30;73.70;;;;;;4216169;27;20050;-51
2024/01/27 05:41:17;;;;;;;10.55;2.78;;;16.40;73.30;;;;;;4213520;27;20047;-50
2024/01/27 05:43:58;;;;;;;11.57;3.05;;;16.40;73.10;;;;;;4189743;28;20511;-51
2024/01/27 05:46:39;;;;;;;;;;;16.40;73.00;;;;;;4190601;28;20054;-52
2024/01/27 05:49:20;;;;;;;5.90;1.90;;;16.40;73.00;;;;;;4190224;28;19970;-51
2024/01/27 05:52:01;;;;;;;11.57;2.17;;;16.40;73.20;;;;;;4198637;27;20058;-50
2024/01/27 05:54:43;;;;;;;14.55;2.88;;;16.40;73.30;;;;;;4199218;28;20097;-50
2024/01/27 05:57:24;;;;;;;12.35;2.72;;;16.30;73.30;;;;;;4189882;28;20059;-49
2024/01/27 06:00:09;;;;;;;12.63;2.50;;;16.40;73.10;;;;;;4205835;27;20051;-48
2024/01/27 06:02:50;;;;;;;13.60;2.38;;;16.40;72.80;;;;;;4206430;27;20047;-51
2024/01/27 06:05:31;;;;;;;12.70;3.47;;;16.40;72.80;;;;;;4205115;28;20075;-49
2024/01/27 06:08:12;;;;;;;8.40;2.10;;;16.40;73.90;;;;;;4190302;28;20055;-51
2024/01/27 06:10:55;;;;;;;7.40;1.77;;;16.40;72.90;;;;;;4199459;28;20051;-50
2024/01/27 06:13:37;;;;;;;8.98;2.47;;;16.50;72.70;;;;;;4206107;28;20047;-49
2024/01/27 06:16:19;;;;;;;10.07;2.38;;;16.50;72.50;;;;;;4205952;28;20059;-48
2024/01/27 06:19:00;;;;;;;10.25;2.28;;;16.50;72.50;;;;;;4206601;28;20070;-49
2024/01/27 06:21:41;;;;;;;11.95;2.13;;;16.50;72.30;;;;;;4213582;27;20398;-50
2024/01/27 06:24:22;;;;;;;12.48;2.30;;;16.60;72.30;;;;;;4222587;27;20046;-48
2024/01/27 06:27:05;;;;;;;9.50;2.17;;;16.60;72.10;;;;;;4221777;27;20133;-51
2024/01/27 06:29:45;;;;;;;14.13;2.00;;;16.60;72.10;;;;;;4221121;27;20049;-48
2024/01/27 06:32:27;;;;;;;13.20;2.88;;;16.60;72.10;;;;;;4212102;27;20055;-50
2024/01/27 06:35:08;;;;;;;9.13;2.33;;;16.50;72.80;;;;;;4205874;28;20058;-51
2024/01/27 06:37:50;;;;;;;14.95;2.67;;;16.50;72.00;;;;;;4189273;28;20063;-47
2024/01/27 06:40:31;;;;;;;9.50;2.47;;;16.50;72.10;;;;;;4188996;28;20590;-51
2024/01/27 06:43:14;;;;;;;14.15;2.40;;;16.40;72.20;;;;;;4200298;28;20079;-51
2024/01/27 06:45:56;;;;;;;8.07;2.45;;;16.30;72.50;;;;;;4203558;27;20140;-52
2024/01/27 06:48:37;;;;;;;9.07;1.92;;;16.30;73.40;;;;;;4206429;27;20096;-52
2024/01/27 06:51:19;;;;;;;12.93;3.08;;;16.30;72.70;;;;;;4205338;27;20529;-51
2024/01/27 06:54:00;;;;;;;12.05;2.67;;;16.40;72.60;;;;;;4220399;27;20074;-51
2024/01/27 06:56:40;;;;;;;8.93;1.92;;;16.40;72.70;;;;;;4221575;27;20402;-47
2024/01/27 06:59:23;;;;;;;7.93;2.25;;;16.30;72.60;;;;;;4221505;27;20054;-47
2024/01/27 07:02:04;;;;;;;8.85;2.75;;;16.30;72.80;;;;;;4216175;27;20111;-48
2024/01/27 07:04:45;;;;;;;10.85;2.08;;;16.40;72.70;;;;;;4215465;27;20084;-48
2024/01/27 07:07:27;;;;;;;10.15;2.92;;;16.30;72.70;;;;;;4221825;27;20137;-51
2024/01/27 07:10:09;;;;;;;11.73;2.60;;;16.30;72.10;;;;;;4220949;27;20067;-49
2024/01/27 07:12:50;;;;;;;12.88;3.00;;;16.20;73.40;;;;;;4215914;27;20062;-50
2024/01/27 07:15:32;;;;;;;7.95;2.28;;;16.20;72.80;;;;;;4222001;27;20091;-48
2024/01/27 07:18:14;;;;;;;7.45;2.20;;;16.20;73.00;;;;;;4205263;28;20177;-47
2024/01/27 07:20:59;;;;;;;4.40;1.95;;;16.20;73.00;;;;;;4215906;27;20505;-49
2024/01/27 07:23:40;;;;;;;10.55;1.98;;;16.20;72.80;;;;;;4221871;27;20047;-51
2024/01/27 07:26:21;;;;;;;9.60;2.20;;;16.30;72.70;;;;;;4205915;28;20051;-48
2024/01/27 07:29:02;;;;;;;13.65;2.15;;;16.30;72.80;;;;;;4204232;28;20047;-49
2024/01/27 07:31:45;;;;;;;10.23;1.90;;;16.30;73.30;;;;;;4204107;28;20051;-47
2024/01/27 07:34:25;;;;;;;7.25;2.25;;;16.30;72.30;;;;;;4200308;28;20112;-60
2024/01/27 07:37:07;;;;;;;13.13;2.88;;;16.30;71.00;;;;;;4214748;28;20157;-60
2024/01/27 07:39:49;;;;;;;12.73;2.10;;;16.20;70.30;;;;;;4220775;27;20547;-61
2024/01/27 07:42:30;;;;;;;10.60;2.70;;;16.20;69.90;;;;;;4220187;27;20196;-60
2024/01/27 07:45:11;;;;;;;16.80;2.60;;;16.20;69.30;;;;;;4222375;27;20509;-60
2024/01/27 07:47:53;;;;;;;13.05;2.10;;;16.10;68.70;;;;;;4212659;27;20047;-60
2024/01/27 07:50:36;;;;;;;16.73;2.70;;;16.00;68.20;;;;;;4218549;27;20050;-59
2024/01/27 07:53:18;;;;;;;7.32;2.17;;;15.90;67.90;;;;;;4221212;27;20089;-60
2024/01/27 07:55:58;;;;;;;9.02;3.05;;;15.90;67.80;;;;;;4237073;27;20054;-48
2024/01/27 07:58:39;;;;;;;10.15;2.60;;;15.80;67.70;;;;;;4204126;28;20050;-51
2024/01/27 08:01:21;;;;;;;7.28;2.17;;;15.80;67.50;;;;;;4205052;28;20510;-51
2024/01/27 08:04:03;;;;;;;11.25;3.13;;;15.80;67.40;;;;;;4205032;28;20165;-60
2024/01/27 08:06:49;;;;;;;15.63;4.07;;;15.70;67.20;;;;;;4204717;27;20059;-60
2024/01/27 08:09:29;;;;;;;5.85;2.25;;;15.70;66.70;;;;;;4196227;27;20051;-59
2024/01/27 08:12:10;;;;;;;7.05;2.65;;;15.70;66.70;;;;;;4188308;28;20054;-60
2024/01/27 08:14:53;;;;;;;10.60;2.50;;;15.70;66.80;;;;;;4187267;28;20059;-58
2024/01/27 08:17:34;;;;;;;6.68;2.55;;;15.70;66.60;;;;;;4196140;27;20051;-59
2024/01/27 08:20:17;;;;;;;10.77;2.15;;;15.80;66.30;;;;;;4204602;27;20624;-58
2024/01/27 08:22:57;;;;;;;7.57;2.22;;;15.80;66.00;;;;;;4203544;27;20047;-59
2024/01/27 08:25:39;;;;;;;11.45;2.50;;;15.80;65.60;;;;;;4206296;27;20043;-59
2024/01/27 08:28:20;;;;;;;10.75;2.95;;;15.80;65.40;;;;;;4203643;28;20055;-58
2024/01/27 08:31:01;;;;;;;12.70;2.70;;;15.80;65.00;;;;;;4205292;27;20054;-58
2024/01/27 08:33:42;;;;;;;15.65;3.50;;;15.90;64.90;;;;;;4217359;27;20284;-60
2024/01/27 08:36:25;;;;;;;12.77;2.70;;;15.80;64.50;;;;;;4211526;27;20063;-60
2024/01/27 08:39:08;;;;;;;9.82;2.55;;;15.90;64.60;;;;;;4204567;28;20375;-60
2024/01/27 08:41:49;;;;;;;12.02;3.08;;;15.90;64.30;;;;;;4203657;28;20055;-60
2024/01/27 08:44:30;;;;;;;11.82;3.95;;;15.90;64.00;;;;;;4204497;28;20117;-61
2024/01/27 08:47:11;;;;;;;9.32;2.65;;;15.90;64.00;;;;;;4204750;28;20186;-60
2024/01/27 08:49:52;;;;;;;13.80;3.20;;;15.80;64.70;;;;;;4203787;28;20116;-60
2024/01/27 08:52:35;;;;;;;13.30;2.60;;;15.80;63.70;;;;;;4208962;27;20058;-61
2024/01/27 08:55:19;;;;;;;7.00;2.35;;;15.80;63.80;;;;;;4221052;27;20060;-60
2024/01/27 08:58:00;;;;;;;10.23;2.47;;;15.70;63.80;;;;;;4210823;27;20051;-54
2024/01/27 09:00:41;;;;;;;7.25;1.95;;;15.60;63.80;;;;;;4203643;28;20093;-48
2024/01/27 09:03:22;;;;;;;9.73;2.25;;;15.60;63.90;;;;;;4209600;27;20063;-60
2024/01/27 09:06:03;;;;;;;9.55;2.80;;;15.50;63.90;;;;;;4220819;27;20119;-60
2024/01/27 09:08:46;;;;;;;9.52;3.47;;;15.50;64.90;;;;;;4220016;27;20051;-59
2024/01/27 09:11:30;;;;;;;9.95;3.97;;;15.50;64.30;;;;;;4207676;27;20055;-59
2024/01/27 09:14:10;;;;;;;8.85;3.60;;;15.50;65.30;;;;;;4187374;28;20059;-58
2024/01/27 09:16:52;;;;;;;10.68;2.85;;;15.60;64.20;;;;;;4186726;27;20067;-60
2024/01/27 09:19:33;;;;;;;10.70;3.22;;;15.50;63.90;;;;;;4197217;28;20081;-60
2024/01/27 09:22:14;;;;;;;10.15;2.95;;;15.50;63.90;;;;;;4204032;28;20058;-60
2024/01/27 09:24:56;;;;;;;11.75;3.08;;;15.60;63.80;;;;;;4186489;28;20125;-51
2024/01/27 09:27:37;;;;;;;12.48;3.05;;;15.50;63.60;;;;;;4192636;28;20127;-51
2024/01/27 09:30:19;;;;;;;9.55;2.85;;;15.50;63.60;;;;;;4203838;27;20054;-50
2024/01/27 09:33:00;;;;;;;10.68;3.17;;;15.50;63.70;;;;;;4214649;27;20051;-52
2024/01/27 09:35:41;;;;;;;9.52;2.97;;;15.60;63.60;;;;;;4204928;27;20080;-50
2024/01/27 09:38:22;;;;;;;10.65;3.55;;;15.90;62.80;;;;;;4203074;28;20039;-48
2024/01/27 09:41:05;;;;;;;7.97;3.20;;;16.30;62.50;;;;;;4204301;28;20489;-51
2024/01/27 09:43:47;;;;;;;10.68;3.17;;;16.70;60.10;;;;;;4211960;27;20058;-50
2024/01/27 09:46:28;;;;;;;13.82;3.55;;;17.10;58.80;;;;;;4215545;27;20120;-49
2024/01/27 09:49:13;;;;;;;10.55;3.17;;;17.50;57.70;;;;;;4203927;28;20399;-59
2024/01/27 09:51:56;;;;;;;12.55;3.25;;;18.10;56.40;;;;;;4203745;28;20055;-59
2024/01/27 09:54:37;;;;;;;13.23;4.30;;;18.50;55.10;;;;;;4202648;28;20051;-59
2024/01/27 09:57:20;;;;;;;12.38;3.28;;;18.90;54.70;;;;;;4212552;27;20099;-51
2024/01/27 10:00:03;;;;;;;12.95;3.97;;;19.20;53.90;;;;;;4190645;27;20042;-52
2024/01/27 10:02:47;;;;;;;9.70;4.03;;;19.50;53.00;;;;;;4211598;27;20063;-52
2024/01/27 10:05:29;;;;;;;11.40;2.97;;;19.70;52.10;;;;;;4220625;27;20055;-49
2024/01/27 10:08:10;;;;;;;11.70;3.72;;;19.90;51.60;;;;;;4204119;28;20185;-50
2024/01/27 10:10:54;;;;;;;9.35;2.90;;;19.90;50.90;;;;;;4203996;28;20059;-49
2024/01/27 10:13:37;;;;;;;11.20;3.70;;;19.90;50.80;;;;;;4203782;28;20058;-51
2024/01/27 10:16:18;;;;;;;11.65;3.83;;;19.80;51.00;;;;;;4205893;27;20055;-50
2024/01/27 10:19:03;;;;;;;8.95;3.42;;;19.70;51.50;;;;;;4209141;27;20051;-51
2024/01/27 10:21:44;;;;;;;13.68;3.67;;;19.60;51.60;;;;;;4223234;27;20127;-49
2024/01/27 10:24:25;;;;;;;9.05;3.25;;;19.60;51.40;;;;;;4223422;27;20054;-50
2024/01/27 10:27:07;;;;;;;12.13;3.40;;;19.60;51.40;;;;;;4209491;27;20601;-49
2024/01/27 10:29:55;;;;;;;8.00;2.97;;;19.70;51.40;;;;;;4207050;28;20096;-58
2024/01/27 10:32:36;;;;;;;12.00;3.88;;;19.70;51.00;;;;;;4206692;28;20046;-59
2024/01/27 10:35:17;;;;;;;10.60;4.00;;;19.70;51.00;;;;;;4221411;27;20055;-51
2024/01/27 10:37:59;;;;;;;13.68;3.17;;;19.60;51.20;;;;;;4206486;28;20100;-52
2024/01/27 10:40:40;;;;;;;13.43;3.92;;;19.70;51.50;;;;;;4206406;28;20077;-53
2024/01/27 10:43:21;;;;;;;11.77;3.10;;;19.70;52.10;;;;;;4204746;28;20518;-50
2024/01/27 10:46:06;;;;;;;5.60;3.10;;;19.70;51.30;;;;;;4206151;28;20047;-59
2024/01/27 10:48:50;;;;;;;10.27;2.90;;;19.80;51.30;;;;;;4205673;28;20591;-50
2024/01/27 10:51:33;;;;;;;13.88;2.85;;;19.80;50.90;;;;;;4205941;28;20055;-49
2024/01/27 10:54:19;;;;;;;11.10;3.40;;;19.80;51.00;;;;;;4205671;27;20091;-52
2024/01/27 10:57:02;;;;;;;13.48;3.50;;;19.80;50.90;;;;;;4205916;27;20438;-49
2024/01/27 10:59:45;;;;;;;10.30;3.53;;;19.90;50.90;;;;;;4204454;27;20414;-58
2024/01/27 11:02:32;;;;;;;13.77;3.88;;;19.90;50.80;;;;;;4220864;27;20426;-58
2024/01/27 11:05:16;;;;;;;11.05;3.78;;;19.90;50.90;;;;;;4208921;27;20104;-59
2024/01/27 11:07:58;;;;;;;11.40;3.08;;;20.00;50.70;;;;;;4205168;28;20070;-57
2024/01/27 11:10:40;;;;;;;10.75;3.58;;;20.00;50.50;;;;;;4205801;28;20109;-58
2024/01/27 11:13:21;;;;;;;10.13;3.17;;;20.10;50.50;;;;;;4205631;27;20067;-59
2024/01/27 11:16:03;;;;;;;13.10;3.33;;;20.10;51.10;;;;;;4205899;28;20073;-58
2024/01/27 11:18:46;;;;;;;9.80;2.70;;;20.10;50.30;;;;;;4155301;28;20063;-51
2024/01/27 11:21:27;;;;;;;13.82;3.40;;;20.20;50.30;;;;;;4142795;27;20055;-52
2024/01/27 11:24:16;;;;;;;12.90;3.60;;;20.20;50.10;;;;;;4204343;27;20620;-52
2024/01/27 11:27:04;;;;;;;4.28;2.25;;;20.20;50.30;;;;;;4193318;27;20055;-57
2024/01/27 11:29:48;;;;;;;10.55;3.90;;;20.10;50.70;;;;;;4193608;27;20057;-58
2024/01/27 11:32:31;;;;;;;9.68;2.70;;;20.10;51.00;;;;;;4188353;28;20577;-58
2024/01/27 11:35:13;;;;;;;9.65;3.28;;;20.00;51.10;;;;;;4188256;28;20075;-58
2024/01/27 11:37:55;;;;;;;13.32;2.22;;;20.00;51.00;;;;;;4205426;27;20593;-51
2024/01/27 11:40:46;;;;;;;9.48;2.80;;;20.00;52.20;;;;;;4207756;27;20047;-52
2024/01/27 11:43:27;;;;;;;9.95;3.60;;;20.00;51.00;;;;;;4220130;27;20153;-53
2024/01/27 11:46:09;;;;;;;7.68;3.03;;;20.00;51.00;;;;;;4218401;27;20063;-58
2024/01/27 11:48:50;;;;;;;8.52;3.53;;;20.00;51.70;;;;;;4204786;28;20059;-48
2024/01/27 11:51:33;;;;;;;14.85;3.28;;;20.10;51.40;;;;;;4205107;28;20043;-58
2024/01/27 11:54:14;;;;;;;9.77;3.58;;;20.10;51.30;;;;;;4205097;28;20104;-58
2024/01/27 11:56:55;;;;;;;9.35;2.72;;;20.10;51.30;;;;;;4205678;28;20069;-52
2024/01/27 11:59:36;;;;;;;11.68;2.85;;;20.20;51.40;;;;;;4224182;27;20058;-49
2024/01/27 12:02:17;;;;;;;8.77;2.88;;;20.20;52.00;;;;;;4204243;28;20055;-58
2024/01/27 12:04:58;;;;;;;13.45;3.35;;;20.20;51.00;;;;;;4204803;28;20456;-58
2024/01/27 12:07:41;;;;;;;11.57;3.03;;;20.10;51.40;;;;;;4205338;28;20586;-52
2024/01/27 12:10:22;;;;;;;5.80;2.50;;;20.00;51.70;;;;;;4205243;28;20107;-48
2024/01/27 12:13:03;;;;;;;11.40;3.70;;;19.90;51.70;;;;;;4210442;27;20132;-52
2024/01/27 12:15:44;;;;;;;;;;;19.70;52.10;;;;;;4222150;27;20062;-53
2024/01/27 12:18:26;;;;;;;11.70;3.95;;;19.60;52.60;;;;;;4220554;27;19931;-48
2024/01/27 12:21:06;;;;;;;;;;;19.70;53.40;;;;;;4216141;27;20051;-51
2024/01/27 12:23:53;;;;;;;14.37;3.50;;;19.70;53.30;;;;;;4211314;27;19927;-52
2024/01/27 12:26:39;;;;;;;11.40;3.88;;;19.80;53.90;;;;;;4211826;27;20057;-55
2024/01/27 12:29:28;;;;;;;12.27;3.42;;;19.80;54.30;;;;;;4206741;27;20055;-57
2024/01/27 12:32:09;;;;;;;12.65;3.85;;;19.90;54.10;;;;;;4189066;28;20055;-52
2024/01/27 12:34:50;;;;;;;14.93;3.97;;;20.00;53.80;;;;;;4198172;28;20070;-49
2024/01/27 12:37:32;;;;;;;8.95;4.05;;;20.00;53.70;;;;;;4210524;27;20067;-53
2024/01/27 12:40:23;;;;;;;13.35;3.67;;;20.00;53.50;;;;;;4197528;27;20421;-49
2024/01/27 12:43:05;;;;;;;10.38;3.38;;;19.90;53.60;;;;;;4174050;28;20413;-45
2024/01/27 12:45:46;;;;;;;11.88;3.95;;;19.90;53.90;;;;;;4201953;28;20055;-44
2024/01/27 12:48:27;;;;;;;10.63;3.67;;;19.90;54.20;;;;;;4203215;28;20051;-45
2024/01/27 12:51:09;;;;;;;14.70;3.72;;;20.00;54.20;;;;;;4203675;28;20129;-43
2024/01/27 12:53:50;;;;;;;13.57;3.42;;;20.00;53.90;;;;;;4203012;28;20059;-43
2024/01/27 12:56:34;;;;;;;14.50;3.67;;;20.00;53.90;;;;;;4202527;28;20196;-47
2024/01/27 12:59:16;;;;;;;8.93;3.30;;;20.00;54.00;;;;;;4204095;28;20063;-43
2024/01/27 13:01:56;;;;;;;10.35;3.45;;;20.00;54.10;;;;;;4213621;27;20470;-43
2024/01/27 13:04:37;;;;;;;8.10;2.78;;;19.90;54.60;;;;;;4219533;27;20078;-45
2024/01/27 13:07:19;;;;;;;13.00;3.45;;;19.80;55.00;;;;;;4220611;27;20066;-44
2024/01/27 13:10:00;;;;;;;6.95;3.05;;;19.70;55.30;;;;;;4220236;27;20079;-46
2024/01/27 13:12:42;;;;;;;12.15;3.50;;;19.60;55.40;;;;;;4220111;27;20193;-43
2024/01/27 13:15:25;;;;;;;11.77;2.88;;;19.60;55.60;;;;;;4219917;27;20149;-36
2024/01/27 13:18:06;;;;;;;11.90;3.22;;;19.50;56.00;;;;;;4218525;27;20046;-36
2024/01/27 13:20:47;;;;;;;11.63;3.05;;;19.40;56.30;;;;;;4220049;27;20092;-36
2024/01/27 13:23:29;;;;;;;11.23;3.72;;;19.30;56.50;;;;;;4219882;27;20054;-37
2024/01/27 13:26:10;;;;;;;13.13;3.13;;;19.40;56.70;;;;;;4220528;27;20402;-36
2024/01/27 13:28:58;;;;;;;12.40;3.10;;;19.30;56.80;;;;;;4219665;27;20410;-37
2024/01/27 13:31:39;;;;;;;17.92;4.57;;;19.20;57.00;;;;;;4220652;27;20579;-37
2024/01/27 13:34:20;;;;;;;10.27;3.13;;;19.30;57.10;;;;;;4211149;27;20120;-37
2024/01/27 13:37:03;;;;;;;14.63;3.55;;;19.30;57.20;;;;;;4203252;28;20051;-36
2024/01/27 13:39:45;;;;;;;8.60;3.05;;;19.30;57.10;;;;;;4203867;28;20434;-37
2024/01/27 13:42:26;;;;;;;;;;;19.20;57.20;;;;;;4203935;28;20051;-37
2024/01/27 13:45:10;;;;;;;7.47;2.92;;;19.30;57.40;;;;;;4203676;28;19927;-37
2024/01/27 13:47:51;;;;;;;9.90;2.85;;;19.40;57.20;;;;;;4203827;28;20051;-37
2024/01/27 13:50:32;;;;;;;;;;;19.40;57.10;;;;;;4204208;28;20051;-37
2024/01/27 13:53:13;;;;;;;8.95;3.03;;;19.40;57.30;;;;;;4203124;28;19926;-36
2024/01/27 13:55:54;;;;;;;12.13;3.17;;;19.30;57.00;;;;;;4216802;27;20096;-37
2024/01/27 13:58:35;;;;;;;6.85;2.70;;;19.30;57.20;;;;;;4214806;27;20190;-37